Winona, Minnesota
Current Conditions -  °F | °C
As of 10:15 AM on Monday 26 Jan 2015 (Local Time) from KONA Reporting Station
Overcast Overcast  
Wind Chill: 25°   Ceiling: 1400
Heat Index: 30°   Visibility: 10mi
Dew Point: 27°   Wind: 5mph
Humidity: 86%   Direction: 160°SSE
Pressure: 29.75"   Gusts: NA
Location:  44.05°N, 91.64°W
Report Text: KONA 261615Z AUTO 16004KT 10SM OVC014 M01/M03 A2975 RMK AO2
Loading
Personal Weather Stations






























Interactive Weather Map New forecast layout! Learn more

10-Day Weather Forecast

Advertisements
Track Severe Weather on mobile